Cantil, CA (93519)

3:10 PM PDT on August 31, 2016 (GMT -0700)
Red Rock Canyon | | Change Station

Elev 2592 ft 35.37 °N, 117.99 °W | Updated 2 minutes ago

Clear
Clear
97.6 °F
Feels Like 93 °F
N
13.0
Wind Variable Wind from South
Gusts 30.0 mph

Today
High -- | Low -- °F
--% Chance of Precip.
Yesterday
High -- | Low -- °F
Precip. -- in
Pressure 29.94 in
Visibility 10.0 miles
Clouds Clear
Heat Index 93 °F
Dew Point 32 °F
Humidity 10%
Rainfall 0.00 in
Snow Depth Not available.
6:23 AM 7:19 PM
Waning Crescent, 0% visible
METAR KMHV 312140Z AUTO 22020G26KT 10SM CLR 36/01 A2994 RMK A01
Pressure 29.94 in
Visibility 10.0 miles
Clouds Clear
Heat Index 93 °F
Dew Point 32 °F
Humidity 10%
Rainfall 0.00 in
Snow Depth Not available.
6:23 AM 7:19 PM
Waning Crescent, 0% visible
METAR KMHV 312140Z AUTO 22020G26KT 10SM CLR 36/01 A2994 RMK A01

10-Day Weather Forecast

Almanac

Astronomy

Aug. 31, 2016 Rise Set
Actual Time
Civil Twilight
Nautical Twilight
Astronomical Twilight
Moon
Length of Visible Light
Length of Day
Tomorrow will be .
, % of the Moon is Illuminated

Today's Extremes

State Highs State Lows

Community

WunderPhotos

Upload Photos

1,936,200 photos uploaded!

WunderBlog® & News

Nearby

Air Quality

  Air Quality AQ Index Pollutant
Not available.

Snow Depth

Station Depth Elevation

Earthquake Activity

City Distance Mag. Time & Date
Minimum magnitude displayed is 2.5.

Coastal Water Temperatures

Place Temperature

Stations

Nearby Weather Stations

Station Location Temp. Windchill Dew Point Humidity Wind Precip. Elev Updated Type
                   

Watches & Warnings

There are currently no watches in effect.